sensor_id;sensor_type;location;lat;lon;timestamp;P1;durP1;ratioP1;P2;durP2;ratioP2
13580;SDS011;6861;46.170;7.222;2023-05-23T00:01:05;4.70;;;2.97;;
13580;SDS011;6861;46.170;7.222;2023-05-23T00:03:34;5.20;;;3.10;;
13580;SDS011;6861;46.170;7.222;2023-05-23T00:06:04;4.57;;;3.65;;
13580;SDS011;6861;46.170;7.222;2023-05-23T00:08:33;5.22;;;3.15;;
13580;SDS011;6861;46.170;7.222;2023-05-23T00:11:03;4.47;;;3.15;;
13580;SDS011;6861;46.170;7.222;2023-05-23T00:13:31;5.28;;;3.47;;
13580;SDS011;6861;46.170;7.222;2023-05-23T00:16:00;4.45;;;3.45;;
13580;SDS011;6861;46.170;7.222;2023-05-23T00:18:28;3.45;;;3.15;;
13580;SDS011;6861;46.170;7.222;2023-05-23T00:20:57;3.42;;;3.13;;
13580;SDS011;6861;46.170;7.222;2023-05-23T00:23:25;3.75;;;3.42;;
13580;SDS011;6861;46.170;7.222;2023-05-23T00:25:55;3.42;;;3.13;;
13580;SDS011;6861;46.170;7.222;2023-05-23T00:28:25;5.47;;;3.22;;
13580;SDS011;6861;46.170;7.222;2023-05-23T00:30:53;3.97;;;3.13;;
13580;SDS011;6861;46.170;7.222;2023-05-23T00:33:21;4.28;;;3.15;;
13580;SDS011;6861;46.170;7.222;2023-05-23T00:35:49;4.18;;;3.22;;
13580;SDS011;6861;46.170;7.222;2023-05-23T00:38:17;3.65;;;2.90;;
13580;SDS011;6861;46.170;7.222;2023-05-23T00:40:46;3.92;;;3.08;;
13580;SDS011;6861;46.170;7.222;2023-05-23T00:43:14;3.20;;;2.90;;
13580;SDS011;6861;46.170;7.222;2023-05-23T00:45:44;5.18;;;3.45;;
13580;SDS011;6861;46.170;7.222;2023-05-23T00:48:12;3.70;;;3.20;;
13580;SDS011;6861;46.170;7.222;2023-05-23T00:50:41;5.07;;;3.40;;
13580;SDS011;6861;46.170;7.222;2023-05-23T00:53:09;3.97;;;3.58;;
13580;SDS011;6861;46.170;7.222;2023-05-23T00:55:37;5.88;;;3.42;;
13580;SDS011;6861;46.170;7.222;2023-05-23T00:58:06;6.85;;;3.80;;
13580;SDS011;6861;46.170;7.222;2023-05-23T01:00:34;5.55;;;3.80;;
13580;SDS011;6861;46.170;7.222;2023-05-23T01:03:05;6.72;;;3.60;;
13580;SDS011;6861;46.170;7.222;2023-05-23T01:05:33;4.78;;;3.20;;
13580;SDS011;6861;46.170;7.222;2023-05-23T01:08:01;4.93;;;3.53;;
13580;SDS011;6861;46.170;7.222;2023-05-23T01:10:30;5.13;;;3.65;;
13580;SDS011;6861;46.170;7.222;2023-05-23T01:13:02;3.65;;;3.35;;
13580;SDS011;6861;46.170;7.222;2023-05-23T01:15:41;8.02;;;3.75;;
13580;SDS011;6861;46.170;7.222;2023-05-23T01:18:17;4.85;;;3.50;;
13580;SDS011;6861;46.170;7.222;2023-05-23T01:20:49;4.82;;;3.38;;
13580;SDS011;6861;46.170;7.222;2023-05-23T01:26:31;3.72;;;3.33;;
13580;SDS011;6861;46.170;7.222;2023-05-23T01:29:10;6.90;;;3.60;;
13580;SDS011;6861;46.170;7.222;2023-05-23T01:31:42;5.40;;;3.00;;
13580;SDS011;6861;46.170;7.222;2023-05-23T01:34:12;3.90;;;3.50;;
13580;SDS011;6861;46.170;7.222;2023-05-23T01:36:42;3.92;;;3.50;;
13580;SDS011;6861;46.170;7.222;2023-05-23T01:39:11;3.90;;;3.30;;
13580;SDS011;6861;46.170;7.222;2023-05-23T01:41:39;4.55;;;3.53;;
13580;SDS011;6861;46.170;7.222;2023-05-23T01:44:09;5.40;;;3.70;;
13580;SDS011;6861;46.170;7.222;2023-05-23T01:46:37;4.55;;;3.75;;
13580;SDS011;6861;46.170;7.222;2023-05-23T01:49:07;4.47;;;3.15;;
13580;SDS011;6861;46.170;7.222;2023-05-23T01:51:38;5.13;;;3.47;;
13580;SDS011;6861;46.170;7.222;2023-05-23T01:54:06;5.82;;;3.42;;
13580;SDS011;6861;46.170;7.222;2023-05-23T01:56:35;6.20;;;3.80;;
13580;SDS011;6861;46.170;7.222;2023-05-23T01:59:03;5.10;;;3.75;;
13580;SDS011;6861;46.170;7.222;2023-05-23T02:01:33;3.47;;;3.17;;
13580;SDS011;6861;46.170;7.222;2023-05-23T02:04:02;5.97;;;3.50;;
13580;SDS011;6861;46.170;7.222;2023-05-23T02:06:31;4.38;;;3.55;;
13580;SDS011;6861;46.170;7.222;2023-05-23T02:08:59;6.10;;;3.80;;
13580;SDS011;6861;46.170;7.222;2023-05-23T02:11:27;4.00;;;3.50;;
13580;SDS011;6861;46.170;7.222;2023-05-23T02:13:56;5.68;;;3.70;;
13580;SDS011;6861;46.170;7.222;2023-05-23T02:16:24;5.47;;;3.70;;
13580;SDS011;6861;46.170;7.222;2023-05-23T02:18:54;5.10;;;3.83;;
13580;SDS011;6861;46.170;7.222;2023-05-23T02:21:22;3.90;;;3.47;;
13580;SDS011;6861;46.170;7.222;2023-05-23T02:23:51;5.22;;;3.58;;
13580;SDS011;6861;46.170;7.222;2023-05-23T02:26:19;6.55;;;3.50;;
13580;SDS011;6861;46.170;7.222;2023-05-23T02:28:47;5.43;;;3.78;;
13580;SDS011;6861;46.170;7.222;2023-05-23T02:31:15;4.93;;;3.78;;
13580;SDS011;6861;46.170;7.222;2023-05-23T02:33:43;3.67;;;3.38;;
13580;SDS011;6861;46.170;7.222;2023-05-23T02:36:13;3.88;;;3.38;;
13580;SDS011;6861;46.170;7.222;2023-05-23T02:38:41;3.60;;;3.30;;
13580;SDS011;6861;46.170;7.222;2023-05-23T02:41:09;5.18;;;3.30;;
13580;SDS011;6861;46.170;7.222;2023-05-23T02:43:37;4.25;;;3.72;;
13580;SDS011;6861;46.170;7.222;2023-05-23T02:46:05;3.78;;;3.38;;
13580;SDS011;6861;46.170;7.222;2023-05-23T02:48:34;4.07;;;3.67;;
13580;SDS011;6861;46.170;7.222;2023-05-23T02:51:02;3.60;;;3.30;;
13580;SDS011;6861;46.170;7.222;2023-05-23T02:53:32;4.72;;;3.50;;
13580;SDS011;6861;46.170;7.222;2023-05-23T02:56:00;6.28;;;3.72;;
13580;SDS011;6861;46.170;7.222;2023-05-23T02:58:28;7.97;;;3.58;;
13580;SDS011;6861;46.170;7.222;2023-05-23T03:00:57;5.15;;;3.13;;
13580;SDS011;6861;46.170;7.222;2023-05-23T03:03:25;3.95;;;3.50;;
13580;SDS011;6861;46.170;7.222;2023-05-23T03:05:54;5.43;;;4.22;;
13580;SDS011;6861;46.170;7.222;2023-05-23T03:08:22;4.43;;;3.95;;
13580;SDS011;6861;46.170;7.222;2023-05-23T03:10:52;5.35;;;4.03;;
13580;SDS011;6861;46.170;7.222;2023-05-23T03:13:20;4.53;;;3.50;;
13580;SDS011;6861;46.170;7.222;2023-05-23T03:15:48;5.03;;;3.80;;
13580;SDS011;6861;46.170;7.222;2023-05-23T03:18:17;4.38;;;3.78;;
13580;SDS011;6861;46.170;7.222;2023-05-23T03:20:45;5.43;;;3.90;;
13580;SDS011;6861;46.170;7.222;2023-05-23T03:23:13;4.68;;;4.05;;
13580;SDS011;6861;46.170;7.222;2023-05-23T03:25:41;4.20;;;3.80;;
13580;SDS011;6861;46.170;7.222;2023-05-23T03:28:11;4.38;;;3.60;;
13580;SDS011;6861;46.170;7.222;2023-05-23T03:30:39;5.25;;;4.00;;
13580;SDS011;6861;46.170;7.222;2023-05-23T03:33:07;4.65;;;4.00;;
13580;SDS011;6861;46.170;7.222;2023-05-23T03:35:36;4.22;;;3.83;;
13580;SDS011;6861;46.170;7.222;2023-05-23T03:38:04;4.63;;;3.72;;
13580;SDS011;6861;46.170;7.222;2023-05-23T03:40:33;4.57;;;3.97;;
13580;SDS011;6861;46.170;7.222;2023-05-23T03:43:01;4.22;;;3.83;;
13580;SDS011;6861;46.170;7.222;2023-05-23T03:45:31;5.13;;;4.20;;
13580;SDS011;6861;46.170;7.222;2023-05-23T03:48:00;4.40;;;4.00;;
13580;SDS011;6861;46.170;7.222;2023-05-23T03:50:28;5.03;;;3.97;;
13580;SDS011;6861;46.170;7.222;2023-05-23T03:52:56;4.43;;;3.97;;
13580;SDS011;6861;46.170;7.222;2023-05-23T03:55:24;4.70;;;4.13;;
13580;SDS011;6861;46.170;7.222;2023-05-23T03:57:52;4.60;;;3.92;;
13580;SDS011;6861;46.170;7.222;2023-05-23T04:00:21;4.57;;;4.00;;
13580;SDS011;6861;46.170;7.222;2023-05-23T04:02:50;5.22;;;4.05;;
13580;SDS011;6861;46.170;7.222;2023-05-23T04:05:18;6.70;;;4.15;;
13580;SDS011;6861;46.170;7.222;2023-05-23T04:07:46;4.97;;;4.05;;
13580;SDS011;6861;46.170;7.222;2023-05-23T04:10:15;5.13;;;3.78;;
13580;SDS011;6861;46.170;7.222;2023-05-23T04:12:43;4.38;;;3.97;;
13580;SDS011;6861;46.170;7.222;2023-05-23T04:15:13;5.97;;;3.90;;
13580;SDS011;6861;46.170;7.222;2023-05-23T04:17:41;4.57;;;3.85;;
13580;SDS011;6861;46.170;7.222;2023-05-23T04:20:11;4.43;;;3.40;;
13580;SDS011;6861;46.170;7.222;2023-05-23T04:22:39;4.35;;;3.88;;
13580;SDS011;6861;46.170;7.222;2023-05-23T04:25:07;6.40;;;4.18;;
13580;SDS011;6861;46.170;7.222;2023-05-23T04:27:35;7.45;;;4.00;;
13580;SDS011;6861;46.170;7.222;2023-05-23T04:30:06;8.88;;;4.35;;
13580;SDS011;6861;46.170;7.222;2023-05-23T04:32:35;5.78;;;4.43;;
13580;SDS011;6861;46.170;7.222;2023-05-23T04:35:04;5.88;;;4.50;;
13580;SDS011;6861;46.170;7.222;2023-05-23T04:37:35;5.13;;;4.38;;
13580;SDS011;6861;46.170;7.222;2023-05-23T04:40:03;6.35;;;4.38;;
13580;SDS011;6861;46.170;7.222;2023-05-23T04:42:32;4.15;;;3.72;;
13580;SDS011;6861;46.170;7.222;2023-05-23T04:45:01;6.13;;;4.38;;
13580;SDS011;6861;46.170;7.222;2023-05-23T04:47:29;6.93;;;4.10;;
13580;SDS011;6861;46.170;7.222;2023-05-23T04:50:02;5.65;;;3.95;;
13580;SDS011;6861;46.170;7.222;2023-05-23T04:52:31;5.70;;;4.47;;
13580;SDS011;6861;46.170;7.222;2023-05-23T04:55:01;5.22;;;4.22;;
13580;SDS011;6861;46.170;7.222;2023-05-23T04:57:29;6.13;;;4.55;;
13580;SDS011;6861;46.170;7.222;2023-05-23T04:59:57;6.03;;;4.32;;
13580;SDS011;6861;46.170;7.222;2023-05-23T05:02:26;6.22;;;4.32;;
13580;SDS011;6861;46.170;7.222;2023-05-23T05:04:59;5.93;;;4.47;;
13580;SDS011;6861;46.170;7.222;2023-05-23T05:07:27;4.68;;;3.92;;
13580;SDS011;6861;46.170;7.222;2023-05-23T05:09:55;4.45;;;3.83;;
13580;SDS011;6861;46.170;7.222;2023-05-23T05:12:27;4.55;;;4.15;;
13580;SDS011;6861;46.170;7.222;2023-05-23T05:14:56;6.63;;;4.20;;
13580;SDS011;6861;46.170;7.222;2023-05-23T05:17:24;4.55;;;4.05;;
13580;SDS011;6861;46.170;7.222;2023-05-23T05:19:52;4.95;;;4.45;;
13580;SDS011;6861;46.170;7.222;2023-05-23T05:22:20;5.15;;;4.55;;
13580;SDS011;6861;46.170;7.222;2023-05-23T05:24:48;6.05;;;4.50;;
13580;SDS011;6861;46.170;7.222;2023-05-23T05:27:16;6.88;;;4.30;;
13580;SDS011;6861;46.170;7.222;2023-05-23T05:29:48;7.13;;;3.88;;
13580;SDS011;6861;46.170;7.222;2023-05-23T05:32:16;5.72;;;4.03;;
13580;SDS011;6861;46.170;7.222;2023-05-23T05:34:44;4.50;;;3.72;;
13580;SDS011;6861;46.170;7.222;2023-05-23T05:37:14;4.72;;;3.45;;
13580;SDS011;6861;46.170;7.222;2023-05-23T05:39:43;4.32;;;3.67;;
13580;SDS011;6861;46.170;7.222;2023-05-23T05:42:11;3.90;;;3.60;;
13580;SDS011;6861;46.170;7.222;2023-05-23T05:44:39;4.53;;;3.85;;
13580;SDS011;6861;46.170;7.222;2023-05-23T05:47:09;5.40;;;4.32;;
13580;SDS011;6861;46.170;7.222;2023-05-23T05:49:37;4.60;;;4.18;;
13580;SDS011;6861;46.170;7.222;2023-05-23T05:52:05;5.28;;;4.53;;
13580;SDS011;6861;46.170;7.222;2023-05-23T05:54:34;5.30;;;4.55;;
13580;SDS011;6861;46.170;7.222;2023-05-23T05:57:03;7.63;;;5.10;;
13580;SDS011;6861;46.170;7.222;2023-05-23T05:59:31;5.72;;;4.70;;
13580;SDS011;6861;46.170;7.222;2023-05-23T06:01:59;5.05;;;4.10;;
13580;SDS011;6861;46.170;7.222;2023-05-23T06:04:29;5.70;;;4.50;;
13580;SDS011;6861;46.170;7.222;2023-05-23T06:06:57;5.65;;;4.72;;
13580;SDS011;6861;46.170;7.222;2023-05-23T06:09:25;5.80;;;4.25;;
13580;SDS011;6861;46.170;7.222;2023-05-23T06:11:53;5.72;;;4.32;;
13580;SDS011;6861;46.170;7.222;2023-05-23T06:14:22;4.88;;;3.90;;
13580;SDS011;6861;46.170;7.222;2023-05-23T06:16:50;5.95;;;3.70;;
13580;SDS011;6861;46.170;7.222;2023-05-23T06:19:18;3.88;;;3.40;;
13580;SDS011;6861;46.170;7.222;2023-05-23T06:21:49;5.18;;;3.50;;
13580;SDS011;6861;46.170;7.222;2023-05-23T06:24:17;3.60;;;3.30;;
13580;SDS011;6861;46.170;7.222;2023-05-23T06:26:45;4.38;;;3.30;;
13580;SDS011;6861;46.170;7.222;2023-05-23T06:29:13;5.30;;;3.10;;
13580;SDS011;6861;46.170;7.222;2023-05-23T06:31:41;7.28;;;3.30;;
13580;SDS011;6861;46.170;7.222;2023-05-23T06:34:09;4.05;;;3.15;;
13580;SDS011;6861;46.170;7.222;2023-05-23T06:36:37;5.80;;;3.78;;
13580;SDS011;6861;46.170;7.222;2023-05-23T06:39:07;8.07;;;4.00;;
13580;SDS011;6861;46.170;7.222;2023-05-23T06:41:35;6.05;;;4.00;;
13580;SDS011;6861;46.170;7.222;2023-05-23T06:44:03;12.55;;;3.67;;
13580;SDS011;6861;46.170;7.222;2023-05-23T06:46:31;6.82;;;3.83;;
13580;SDS011;6861;46.170;7.222;2023-05-23T06:48:59;9.13;;;4.20;;
13580;SDS011;6861;46.170;7.222;2023-05-23T06:51:39;7.97;;;3.67;;
13580;SDS011;6861;46.170;7.222;2023-05-23T06:54:09;3.97;;;3.45;;
13580;SDS011;6861;46.170;7.222;2023-05-23T06:56:37;6.22;;;2.97;;
13580;SDS011;6861;46.170;7.222;2023-05-23T06:59:05;3.72;;;2.85;;
13580;SDS011;6861;46.170;7.222;2023-05-23T07:01:33;4.40;;;3.45;;
13580;SDS011;6861;46.170;7.222;2023-05-23T07:04:02;4.00;;;3.05;;
13580;SDS011;6861;46.170;7.222;2023-05-23T07:06:30;4.03;;;3.20;;
13580;SDS011;6861;46.170;7.222;2023-05-23T07:08:58;4.95;;;3.13;;
13580;SDS011;6861;46.170;7.222;2023-05-23T07:11:28;3.70;;;3.40;;
13580;SDS011;6861;46.170;7.222;2023-05-23T07:13:56;8.05;;;3.33;;
13580;SDS011;6861;46.170;7.222;2023-05-23T07:16:25;3.90;;;3.50;;
13580;SDS011;6861;46.170;7.222;2023-05-23T07:18:53;4.93;;;3.03;;
13580;SDS011;6861;46.170;7.222;2023-05-23T07:21:21;3.30;;;3.00;;
13580;SDS011;6861;46.170;7.222;2023-05-23T07:23:49;5.43;;;3.22;;
13580;SDS011;6861;46.170;7.222;2023-05-23T07:26:18;3.55;;;3.00;;
13580;SDS011;6861;46.170;7.222;2023-05-23T07:28:47;3.50;;;3.20;;
13580;SDS011;6861;46.170;7.222;2023-05-23T07:31:15;3.40;;;3.10;;
13580;SDS011;6861;46.170;7.222;2023-05-23T07:33:44;3.83;;;2.95;;
13580;SDS011;6861;46.170;7.222;2023-05-23T07:36:12;4.32;;;2.83;;
13580;SDS011;6861;46.170;7.222;2023-05-23T07:38:40;4.68;;;2.97;;
13580;SDS011;6861;46.170;7.222;2023-05-23T07:41:08;3.92;;;3.03;;
13580;SDS011;6861;46.170;7.222;2023-05-23T07:43:38;3.03;;;2.80;;
13580;SDS011;6861;46.170;7.222;2023-05-23T07:46:07;3.30;;;3.00;;
13580;SDS011;6861;46.170;7.222;2023-05-23T07:48:36;2.92;;;2.63;;
13580;SDS011;6861;46.170;7.222;2023-05-23T07:51:04;4.35;;;3.10;;
13580;SDS011;6861;46.170;7.222;2023-05-23T07:53:32;3.35;;;2.85;;
13580;SDS011;6861;46.170;7.222;2023-05-23T07:56:05;5.45;;;3.15;;
13580;SDS011;6861;46.170;7.222;2023-05-23T07:58:33;5.03;;;2.90;;
13580;SDS011;6861;46.170;7.222;2023-05-23T08:01:02;4.80;;;2.90;;
13580;SDS011;6861;46.170;7.222;2023-05-23T08:03:32;3.45;;;2.92;;
13580;SDS011;6861;46.170;7.222;2023-05-23T08:06:00;4.70;;;2.85;;
13580;SDS011;6861;46.170;7.222;2023-05-23T08:08:28;4.90;;;3.25;;
13580;SDS011;6861;46.170;7.222;2023-05-23T08:10:57;4.30;;;3.22;;
13580;SDS011;6861;46.170;7.222;2023-05-23T08:13:25;3.90;;;3.17;;
13580;SDS011;6861;46.170;7.222;2023-05-23T08:15:53;3.85;;;3.03;;
13580;SDS011;6861;46.170;7.222;2023-05-23T08:18:22;3.17;;;2.90;;
13580;SDS011;6861;46.170;7.222;2023-05-23T08:20:52;3.33;;;2.85;;
13580;SDS011;6861;46.170;7.222;2023-05-23T08:23:20;3.22;;;2.92;;
13580;SDS011;6861;46.170;7.222;2023-05-23T08:25:49;6.03;;;3.25;;
13580;SDS011;6861;46.170;7.222;2023-05-23T08:28:17;3.22;;;2.92;;
13580;SDS011;6861;46.170;7.222;2023-05-23T08:30:45;3.85;;;3.38;;
13580;SDS011;6861;46.170;7.222;2023-05-23T08:33:13;4.82;;;3.22;;
13580;SDS011;6861;46.170;7.222;2023-05-23T08:35:41;5.25;;;3.30;;
13580;SDS011;6861;46.170;7.222;2023-05-23T08:38:11;3.97;;;3.58;;
13580;SDS011;6861;46.170;7.222;2023-05-23T08:40:39;9.38;;;3.47;;
13580;SDS011;6861;46.170;7.222;2023-05-23T08:43:12;3.80;;;3.17;;
13580;SDS011;6861;46.170;7.222;2023-05-23T08:45:40;4.47;;;3.22;;
13580;SDS011;6861;46.170;7.222;2023-05-23T08:48:08;3.67;;;3.25;;
13580;SDS011;6861;46.170;7.222;2023-05-23T08:50:40;5.10;;;3.70;;
13580;SDS011;6861;46.170;7.222;2023-05-23T08:53:14;5.20;;;3.22;;
13580;SDS011;6861;46.170;7.222;2023-05-23T08:55:46;3.95;;;2.90;;
13580;SDS011;6861;46.170;7.222;2023-05-23T08:58:16;4.25;;;3.30;;
13580;SDS011;6861;46.170;7.222;2023-05-23T09:00:46;3.83;;;3.10;;
13580;SDS011;6861;46.170;7.222;2023-05-23T09:03:15;4.10;;;3.22;;
13580;SDS011;6861;46.170;7.222;2023-05-23T09:05:44;3.80;;;2.83;;
13580;SDS011;6861;46.170;7.222;2023-05-23T09:08:14;3.28;;;2.60;;
13580;SDS011;6861;46.170;7.222;2023-05-23T09:10:44;3.58;;;3.10;;
13580;SDS011;6861;46.170;7.222;2023-05-23T09:13:12;2.92;;;2.70;;
13580;SDS011;6861;46.170;7.222;2023-05-23T09:15:54;2.60;;;2.40;;
13580;SDS011;6861;46.170;7.222;2023-05-23T09:18:23;4.63;;;2.90;;
13580;SDS011;6861;46.170;7.222;2023-05-23T09:20:52;3.25;;;2.95;;
13580;SDS011;6861;46.170;7.222;2023-05-23T09:23:21;3.35;;;2.80;;
13580;SDS011;6861;46.170;7.222;2023-05-23T09:25:50;3.45;;;2.67;;
13580;SDS011;6861;46.170;7.222;2023-05-23T09:28:18;3.67;;;2.53;;
13580;SDS011;6861;46.170;7.222;2023-05-23T09:30:46;3.30;;;3.00;;
13580;SDS011;6861;46.170;7.222;2023-05-23T09:33:14;3.00;;;2.70;;
13580;SDS011;6861;46.170;7.222;2023-05-23T09:35:42;5.40;;;3.20;;
13580;SDS011;6861;46.170;7.222;2023-05-23T09:38:12;5.55;;;3.05;;
13580;SDS011;6861;46.170;7.222;2023-05-23T09:40:43;6.70;;;2.83;;
13580;SDS011;6861;46.170;7.222;2023-05-23T09:43:12;3.33;;;2.80;;
13580;SDS011;6861;46.170;7.222;2023-05-23T09:45:44;3.40;;;2.58;;
13580;SDS011;6861;46.170;7.222;2023-05-23T09:48:12;4.68;;;2.65;;
13580;SDS011;6861;46.170;7.222;2023-05-23T09:50:40;2.85;;;2.65;;
13580;SDS011;6861;46.170;7.222;2023-05-23T09:53:12;4.63;;;2.45;;
13580;SDS011;6861;46.170;7.222;2023-05-23T09:55:41;3.40;;;2.50;;
13580;SDS011;6861;46.170;7.222;2023-05-23T09:58:10;4.55;;;2.85;;
13580;SDS011;6861;46.170;7.222;2023-05-23T10:00:39;3.22;;;2.78;;
13580;SDS011;6861;46.170;7.222;2023-05-23T10:03:09;3.10;;;2.80;;
13580;SDS011;6861;46.170;7.222;2023-05-23T10:05:40;4.47;;;2.70;;
13580;SDS011;6861;46.170;7.222;2023-05-23T10:08:13;3.00;;;2.60;;
13580;SDS011;6861;46.170;7.222;2023-05-23T10:11:15;3.97;;;2.90;;
13580;SDS011;6861;46.170;7.222;2023-05-23T10:14:14;4.32;;;2.83;;
13580;SDS011;6861;46.170;7.222;2023-05-23T10:16:46;2.92;;;2.42;;
13580;SDS011;6861;46.170;7.222;2023-05-23T10:19:22;3.08;;;2.80;;
13580;SDS011;6861;46.170;7.222;2023-05-23T10:21:58;3.40;;;2.80;;
13580;SDS011;6861;46.170;7.222;2023-05-23T10:24:29;3.38;;;3.08;;
13580;SDS011;6861;46.170;7.222;2023-05-23T10:26:59;4.25;;;3.13;;
13580;SDS011;6861;46.170;7.222;2023-05-23T10:29:28;3.42;;;3.08;;
13580;SDS011;6861;46.170;7.222;2023-05-23T10:31:59;3.90;;;3.17;;
13580;SDS011;6861;46.170;7.222;2023-05-23T10:34:30;3.88;;;2.75;;
13580;SDS011;6861;46.170;7.222;2023-05-23T10:37:04;5.45;;;3.17;;
13580;SDS011;6861;46.170;7.222;2023-05-23T10:39:36;4.65;;;3.30;;
13580;SDS011;6861;46.170;7.222;2023-05-23T10:42:16;3.92;;;3.53;;
13580;SDS011;6861;46.170;7.222;2023-05-23T10:44:50;4.45;;;3.15;;
13580;SDS011;6861;46.170;7.222;2023-05-23T10:47:24;3.72;;;3.28;;
13580;SDS011;6861;46.170;7.222;2023-05-23T10:49:54;4.68;;;3.25;;
13580;SDS011;6861;46.170;7.222;2023-05-23T10:52:23;3.97;;;2.83;;
13580;SDS011;6861;46.170;7.222;2023-05-23T10:54:53;4.50;;;3.20;;
13580;SDS011;6861;46.170;7.222;2023-05-23T10:57:25;3.35;;;3.05;;
13580;SDS011;6861;46.170;7.222;2023-05-23T10:59:54;3.78;;;2.90;;
13580;SDS011;6861;46.170;7.222;2023-05-23T11:02:24;3.08;;;2.78;;
13580;SDS011;6861;46.170;7.222;2023-05-23T11:10:53;5.15;;;3.28;;
13580;SDS011;6861;46.170;7.222;2023-05-23T11:13:23;4.20;;;2.97;;
13580;SDS011;6861;46.170;7.222;2023-05-23T11:15:52;3.47;;;3.17;;
13580;SDS011;6861;46.170;7.222;2023-05-23T11:18:23;4.28;;;3.35;;
13580;SDS011;6861;46.170;7.222;2023-05-23T11:20:54;4.20;;;3.80;;
13580;SDS011;6861;46.170;7.222;2023-05-23T11:23:28;6.40;;;4.07;;
13580;SDS011;6861;46.170;7.222;2023-05-23T11:26:19;5.10;;;3.50;;
13580;SDS011;6861;46.170;7.222;2023-05-23T11:28:57;5.80;;;3.90;;
13580;SDS011;6861;46.170;7.222;2023-05-23T11:31:26;4.95;;;3.72;;
13580;SDS011;6861;46.170;7.222;2023-05-23T11:33:54;4.55;;;3.30;;
13580;SDS011;6861;46.170;7.222;2023-05-23T11:36:22;4.55;;;3.75;;
13580;SDS011;6861;46.170;7.222;2023-05-23T11:38:51;3.95;;;3.53;;
13580;SDS011;6861;46.170;7.222;2023-05-23T11:41:19;6.25;;;4.00;;
13580;SDS011;6861;46.170;7.222;2023-05-23T11:43:48;4.75;;;3.50;;
13580;SDS011;6861;46.170;7.222;2023-05-23T11:46:18;7.03;;;3.72;;
13580;SDS011;6861;46.170;7.222;2023-05-23T11:48:47;4.10;;;3.70;;
13580;SDS011;6861;46.170;7.222;2023-05-23T11:51:18;4.93;;;3.45;;
13580;SDS011;6861;46.170;7.222;2023-05-23T11:53:46;5.55;;;3.63;;
13580;SDS011;6861;46.170;7.222;2023-05-23T11:56:14;5.70;;;3.83;;
13580;SDS011;6861;46.170;7.222;2023-05-23T11:58:43;4.65;;;4.25;;
13580;SDS011;6861;46.170;7.222;2023-05-23T12:01:11;5.20;;;3.90;;
13580;SDS011;6861;46.170;7.222;2023-05-23T12:03:48;3.78;;;3.47;;
13580;SDS011;6861;46.170;7.222;2023-05-23T12:06:18;4.28;;;3.88;;
13580;SDS011;6861;46.170;7.222;2023-05-23T12:08:46;4.43;;;3.78;;
13580;SDS011;6861;46.170;7.222;2023-05-23T12:11:15;6.45;;;3.78;;
13580;SDS011;6861;46.170;7.222;2023-05-23T12:13:44;6.72;;;3.88;;
13580;SDS011;6861;46.170;7.222;2023-05-23T12:16:12;4.03;;;3.50;;
13580;SDS011;6861;46.170;7.222;2023-05-23T12:18:41;7.45;;;3.85;;
13580;SDS011;6861;46.170;7.222;2023-05-23T12:21:11;6.07;;;4.00;;
13580;SDS011;6861;46.170;7.222;2023-05-23T12:23:39;5.85;;;4.35;;
13580;SDS011;6861;46.170;7.222;2023-05-23T12:26:08;7.35;;;4.50;;
13580;SDS011;6861;46.170;7.222;2023-05-23T12:28:37;4.22;;;3.80;;
13580;SDS011;6861;46.170;7.222;2023-05-23T12:31:08;4.22;;;3.83;;
13580;SDS011;6861;46.170;7.222;2023-05-23T12:33:37;5.03;;;4.50;;
13580;SDS011;6861;46.170;7.222;2023-05-23T12:36:06;4.35;;;3.92;;
13580;SDS011;6861;46.170;7.222;2023-05-23T12:38:36;4.50;;;4.10;;
13580;SDS011;6861;46.170;7.222;2023-05-23T12:41:06;4.68;;;4.18;;
13580;SDS011;6861;46.170;7.222;2023-05-23T12:43:39;5.40;;;4.13;;
13580;SDS011;6861;46.170;7.222;2023-05-23T12:46:07;5.53;;;4.35;;
13580;SDS011;6861;46.170;7.222;2023-05-23T12:48:36;6.00;;;4.63;;
13580;SDS011;6861;46.170;7.222;2023-05-23T12:51:04;4.28;;;3.92;;
13580;SDS011;6861;46.170;7.222;2023-05-23T12:53:32;5.45;;;4.13;;
13580;SDS011;6861;46.170;7.222;2023-05-23T12:56:02;5.93;;;4.20;;
13580;SDS011;6861;46.170;7.222;2023-05-23T12:58:30;6.20;;;4.43;;
13580;SDS011;6861;46.170;7.222;2023-05-23T13:01:00;6.07;;;3.78;;
13580;SDS011;6861;46.170;7.222;2023-05-23T13:03:29;5.53;;;4.60;;
13580;SDS011;6861;46.170;7.222;2023-05-23T13:05:58;5.32;;;4.53;;
13580;SDS011;6861;46.170;7.222;2023-05-23T13:08:26;4.72;;;4.15;;
13580;SDS011;6861;46.170;7.222;2023-05-23T13:10:54;4.35;;;3.95;;
13580;SDS011;6861;46.170;7.222;2023-05-23T13:13:24;4.82;;;4.40;;
13580;SDS011;6861;46.170;7.222;2023-05-23T13:15:53;4.75;;;4.10;;
13580;SDS011;6861;46.170;7.222;2023-05-23T13:18:21;5.57;;;4.10;;
13580;SDS011;6861;46.170;7.222;2023-05-23T13:20:49;8.80;;;4.20;;
13580;SDS011;6861;46.170;7.222;2023-05-23T13:23:17;5.07;;;3.90;;
13580;SDS011;6861;46.170;7.222;2023-05-23T13:25:46;5.75;;;3.65;;
13580;SDS011;6861;46.170;7.222;2023-05-23T13:28:16;4.30;;;3.85;;
13580;SDS011;6861;46.170;7.222;2023-05-23T13:30:47;4.15;;;3.75;;
13580;SDS011;6861;46.170;7.222;2023-05-23T13:33:15;5.10;;;3.78;;
13580;SDS011;6861;46.170;7.222;2023-05-23T13:35:43;6.35;;;3.80;;
13580;SDS011;6861;46.170;7.222;2023-05-23T13:38:14;6.28;;;3.80;;
13580;SDS011;6861;46.170;7.222;2023-05-23T13:40:44;4.57;;;3.80;;
13580;SDS011;6861;46.170;7.222;2023-05-23T13:43:14;5.47;;;3.72;;
13580;SDS011;6861;46.170;7.222;2023-05-23T13:45:42;7.65;;;3.50;;
13580;SDS011;6861;46.170;7.222;2023-05-23T13:48:12;6.38;;;3.70;;
13580;SDS011;6861;46.170;7.222;2023-05-23T13:50:40;4.70;;;3.33;;
13580;SDS011;6861;46.170;7.222;2023-05-23T13:53:09;10.10;;;3.90;;
13580;SDS011;6861;46.170;7.222;2023-05-23T13:55:42;7.70;;;3.72;;
13580;SDS011;6861;46.170;7.222;2023-05-23T13:58:10;7.00;;;4.20;;
13580;SDS011;6861;46.170;7.222;2023-05-23T14:00:39;8.48;;;3.60;;
13580;SDS011;6861;46.170;7.222;2023-05-23T14:03:08;10.50;;;4.20;;
13580;SDS011;6861;46.170;7.222;2023-05-23T14:05:37;5.30;;;3.88;;
13580;SDS011;6861;46.170;7.222;2023-05-23T14:08:06;6.85;;;3.70;;
13580;SDS011;6861;46.170;7.222;2023-05-23T14:10:34;8.15;;;4.50;;
13580;SDS011;6861;46.170;7.222;2023-05-23T14:13:02;8.23;;;4.10;;
13580;SDS011;6861;46.170;7.222;2023-05-23T14:15:30;8.10;;;3.88;;
13580;SDS011;6861;46.170;7.222;2023-05-23T14:18:00;8.93;;;3.70;;
13580;SDS011;6861;46.170;7.222;2023-05-23T14:20:28;5.57;;;3.78;;
13580;SDS011;6861;46.170;7.222;2023-05-23T14:22:58;9.20;;;3.92;;
13580;SDS011;6861;46.170;7.222;2023-05-23T14:25:26;5.22;;;3.40;;
13580;SDS011;6861;46.170;7.222;2023-05-23T14:27:55;4.43;;;3.50;;
13580;SDS011;6861;46.170;7.222;2023-05-23T14:30:24;7.20;;;3.70;;
13580;SDS011;6861;46.170;7.222;2023-05-23T14:32:52;5.57;;;3.58;;
13580;SDS011;6861;46.170;7.222;2023-05-23T14:35:20;3.50;;;3.20;;
13580;SDS011;6861;46.170;7.222;2023-05-23T14:37:48;3.80;;;2.90;;
13580;SDS011;6861;46.170;7.222;2023-05-23T14:40:18;4.78;;;3.63;;
13580;SDS011;6861;46.170;7.222;2023-05-23T14:42:46;3.13;;;2.83;;
13580;SDS011;6861;46.170;7.222;2023-05-23T14:45:14;4.28;;;3.88;;
13580;SDS011;6861;46.170;7.222;2023-05-23T14:47:44;3.65;;;3.22;;
13580;SDS011;6861;46.170;7.222;2023-05-23T14:50:12;5.35;;;2.20;;
13580;SDS011;6861;46.170;7.222;2023-05-23T14:52:41;4.18;;;2.38;;
13580;SDS011;6861;46.170;7.222;2023-05-23T14:55:09;4.25;;;2.63;;
13580;SDS011;6861;46.170;7.222;2023-05-23T14:57:39;4.97;;;2.58;;
13580;SDS011;6861;46.170;7.222;2023-05-23T15:00:07;4.35;;;2.22;;
13580;SDS011;6861;46.170;7.222;2023-05-23T15:02:37;3.05;;;2.30;;
13580;SDS011;6861;46.170;7.222;2023-05-23T15:05:05;1.50;;;1.40;;
13580;SDS011;6861;46.170;7.222;2023-05-23T15:07:34;3.95;;;1.70;;
13580;SDS011;6861;46.170;7.222;2023-05-23T15:10:04;3.80;;;1.85;;
13580;SDS011;6861;46.170;7.222;2023-05-23T15:12:34;1.77;;;1.63;;
13580;SDS011;6861;46.170;7.222;2023-05-23T15:15:04;10.98;;;1.70;;
13580;SDS011;6861;46.170;7.222;2023-05-23T15:17:33;2.67;;;1.98;;
13580;SDS011;6861;46.170;7.222;2023-05-23T15:20:02;2.60;;;2.08;;
13580;SDS011;6861;46.170;7.222;2023-05-23T15:22:33;3.55;;;1.63;;